North Bend, OR

11:23 AM PDT on August 30, 2014 (GMT -0700)
North Bend | Change Station
CLOSE
Current Station
Airport
Location: North Bend,
Elevation: 16 ft
Nearby Weather Stations

Elev 16 ft 43.42 °N, 124.25 °W | Updated 8 minutes ago

Overcast
Overcast
63 °F
Feels Like 63 °F
N
6
Wind Variable Wind from SW

Today
High -- | Low -- °F
--% Chance of Precip.
Yesterday
High -- | Low -- °F
Precip. -- in
6:38 AM 7:55 PM
Waxing Crescent, 23% visible
Pressure 30.03 in
Visibility 10.0 miles
Clouds Scattered Clouds 400 ft
Scattered Clouds 800 ft
Overcast 1500 ft
Dew Point 63 °F
Humidity 100%
Rainfall 0.01 in
Snow Depth Not available.
UV 2 out of 12
Pollen 3.00 out of 12
Air Quality Not available.
Flu Activity Not available.
METAR KOTH 301815Z 22005KT 10SM SCT004 SCT008 OVC015 17/17 A3003 RMK AO1

More Conditions Fewer Conditions

Pressure 30.03 in
Visibility 10.0 miles
Clouds Scattered Clouds 400 ft
Scattered Clouds 800 ft
Overcast 1500 ft
Dew Point 63 °F
Humidity 100%
Rainfall 0.01 in
Snow Depth Not available.
UV 2 out of 12
Pollen 3.00 out of 12
Air Quality Not available.
Flu Activity Not available.
METAR KOTH 301815Z 22005KT 10SM SCT004 SCT008 OVC015 17/17 A3003 RMK AO1

More Conditions Fewer Conditions

10-Day Weather Forecast

Almanac

Astronomy

Aug. 30, 2014 Rise Set
Actual Time 6:38 AM PDT 7:55 PM PDT
Civil Twilight 6:09 AM PDT 8:24 PM PDT
Nautical Twilight 5:33 AM PDT 9:00 PM PDT
Astronomical Twilight 4:56 AM PDT 9:37 PM PDT
Moon 11:41 AM PDT 10:23 PM PDT
Length of Visible Light 14h 15m
Length of Day
13h 16m
Tomorrow will be 2m 50s shorter.
Waxing Crescent, 23% of the Moon is Illuminated
Today
Waxing Crescent
Sep 2
First Quarter
Sep 8
Full
Sep 15
Last Quarter
Sep 24
New

Today's Extremes

State Highs State Lows

Community

WunderPhotos

Upload Photos

1,748,583 photos uploaded!

WunderBlogs® & News

Nearby

Snow Depth

Station Depth Elevation
Holland Meadows 0 in 4900 ft
Bigelow Camp 0 in 5120 ft
Diamond Lake 0 in 5315 ft
Salt Creek Falls 0 in 4000 ft
Annie Springs 0 in 6020 ft

Earthquake Activity

City Distance Mag. Time & Date
No recent earthquake activity has been reported nearby.
Minimum magnitude displayed is 2.5.

Coastal Water Temperatures

Place Temperature
Port Orford, OR 51.1 °F
Charleston, OR 55.9 °F
South Beach, OR 55.0 °F

Nearby Weather Stations